createdAt,value
2023-01-26T00:00:10.505Z,8.20
2023-01-26T00:02:39.084Z,8.03
2023-01-26T00:05:08.008Z,9.38
2023-01-26T00:07:36.252Z,9.03
2023-01-26T00:10:05.079Z,7.32
2023-01-26T00:12:34.721Z,7.47
2023-01-26T00:15:03.021Z,9.13
2023-01-26T00:17:31.325Z,8.88
2023-01-26T00:19:59.817Z,8.05
2023-01-26T00:22:28.966Z,8.03
2023-01-26T00:24:57.292Z,8.20
2023-01-26T00:27:25.388Z,8.32
2023-01-26T00:29:55.446Z,8.60
2023-01-26T00:32:23.601Z,9.00
2023-01-26T00:34:51.850Z,8.10
2023-01-26T00:37:20.509Z,9.47
2023-01-26T00:39:48.725Z,9.07
2023-01-26T00:42:17.121Z,8.57
2023-01-26T00:44:45.952Z,9.33
2023-01-26T00:47:16.049Z,8.83
2023-01-26T00:49:44.877Z,9.43
2023-01-26T00:52:13.594Z,9.00
2023-01-26T00:54:41.896Z,9.10
2023-01-26T00:57:10.171Z,10.57
2023-01-26T00:59:38.342Z,8.13
2023-01-26T01:02:06.773Z,8.80
2023-01-26T01:04:36.769Z,7.85
2023-01-26T01:07:05.175Z,7.95
2023-01-26T01:09:33.519Z,8.37
2023-01-26T01:12:01.766Z,7.40
2023-01-26T01:14:30.156Z,7.97
2023-01-26T01:16:58.320Z,7.55
2023-01-26T01:19:27.462Z,7.13
2023-01-26T01:21:57.340Z,7.67
2023-01-26T01:24:25.801Z,8.00
2023-01-26T01:26:53.961Z,8.35
2023-01-26T01:29:22.248Z,8.45
2023-01-26T01:31:50.753Z,8.27
2023-01-26T01:34:19.119Z,7.97
2023-01-26T01:36:47.433Z,9.20
2023-01-26T01:39:20.014Z,8.38
2023-01-26T01:41:48.336Z,7.40
2023-01-26T01:44:19.013Z,8.95
2023-01-26T01:46:50.663Z,8.27
2023-01-26T01:49:22.097Z,8.30
2023-01-26T01:51:54.914Z,8.10
2023-01-26T01:54:30.367Z,8.30
2023-01-26T01:57:02.107Z,7.40
2023-01-26T01:59:32.027Z,8.07
2023-01-26T02:02:00.503Z,8.07
2023-01-26T02:04:28.933Z,7.35
2023-01-26T02:07:00.347Z,8.30
2023-01-26T02:09:51.961Z,8.40
2023-01-26T02:12:24.313Z,8.07
2023-01-26T02:14:54.467Z,8.93
2023-01-26T02:17:22.847Z,8.13
2023-01-26T02:19:59.720Z,8.80
2023-01-26T02:22:40.462Z,7.68
2023-01-26T02:25:16.768Z,9.52
2023-01-26T02:27:46.428Z,9.52
2023-01-26T02:30:15.620Z,8.97
2023-01-26T02:32:43.915Z,9.02
2023-01-26T02:35:12.139Z,9.67
2023-01-26T02:37:40.400Z,8.63
2023-01-26T02:40:15.319Z,9.67
2023-01-26T02:42:44.556Z,8.43
2023-01-26T02:45:16.460Z,8.00
2023-01-26T02:47:45.474Z,8.95
2023-01-26T02:50:13.723Z,10.97
2023-01-26T02:52:42.401Z,9.13
2023-01-26T02:55:26.339Z,10.17
2023-01-26T02:57:57.581Z,9.83
2023-01-26T03:00:27.755Z,9.87
2023-01-26T03:02:58.178Z,10.80
2023-01-26T03:05:27.095Z,9.68
2023-01-26T03:07:55.505Z,8.27
2023-01-26T03:10:25.380Z,9.98
2023-01-26T03:12:53.735Z,9.07
2023-01-26T03:15:40.694Z,9.70
2023-01-26T03:18:31.060Z,9.02
2023-01-26T03:21:18.215Z,11.17
2023-01-26T03:24:03.700Z,9.63
2023-01-26T03:26:49.562Z,10.27
2023-01-26T03:29:17.930Z,10.10
2023-01-26T03:31:48.133Z,10.68
2023-01-26T03:34:16.415Z,9.60
2023-01-26T03:36:44.862Z,10.80
2023-01-26T03:39:33.266Z,9.50
2023-01-26T03:42:19.480Z,9.43
2023-01-26T03:45:04.977Z,10.13
2023-01-26T03:47:52.080Z,11.45
2023-01-26T03:50:38.300Z,10.48
2023-01-26T03:53:32.474Z,10.48
2023-01-26T03:56:22.208Z,11.23
2023-01-26T03:58:52.961Z,9.67
2023-01-26T04:01:27.973Z,10.00
2023-01-26T04:04:15.694Z,11.03
2023-01-26T04:07:03.396Z,10.33
2023-01-26T04:09:32.510Z,9.70
2023-01-26T04:12:01.273Z,10.57
2023-01-26T04:14:49.285Z,8.60
2023-01-26T04:17:36.415Z,9.87
2023-01-26T04:20:24.305Z,10.00
2023-01-26T04:22:52.860Z,9.77
2023-01-26T04:25:22.994Z,9.33
2023-01-26T04:27:51.235Z,9.50
2023-01-26T04:30:20.236Z,11.10
2023-01-26T04:32:48.532Z,10.20
2023-01-26T04:35:18.472Z,10.33
2023-01-26T04:37:46.708Z,10.80
2023-01-26T04:40:15.267Z,10.03
2023-01-26T04:42:43.471Z,9.93
2023-01-26T04:45:12.323Z,10.67
2023-01-26T04:47:40.650Z,11.03
2023-01-26T04:50:10.709Z,10.07
2023-01-26T04:52:40.673Z,10.47
2023-01-26T04:55:09.586Z,10.67
2023-01-26T04:57:37.887Z,11.80
2023-01-26T05:00:07.355Z,11.67
2023-01-26T05:02:35.552Z,11.37
2023-01-26T05:05:03.699Z,11.05
2023-01-26T05:07:31.862Z,11.30
2023-01-26T05:10:01.610Z,10.80
2023-01-26T05:12:35.729Z,10.77
2023-01-26T05:15:04.043Z,10.80
2023-01-26T05:17:32.364Z,12.10
2023-01-26T05:20:00.583Z,11.18
2023-01-26T05:22:28.872Z,11.70
2023-01-26T05:24:57.171Z,12.30
2023-01-26T05:27:26.917Z,12.13
2023-01-26T05:30:00.317Z,11.30
2023-01-26T05:32:29.330Z,12.37
2023-01-26T05:34:57.823Z,10.93
2023-01-26T05:37:26.991Z,10.18
2023-01-26T05:39:55.356Z,11.43
2023-01-26T05:42:24.432Z,12.13
2023-01-26T05:44:54.146Z,11.43
2023-01-26T05:47:22.457Z,12.33
2023-01-26T05:49:50.581Z,13.47
2023-01-26T05:52:20.234Z,12.13
2023-01-26T05:54:48.422Z,11.33
2023-01-26T05:57:17.648Z,10.73
2023-01-26T05:59:45.906Z,11.05
2023-01-26T06:02:15.823Z,12.70
2023-01-26T06:04:44.011Z,13.13
2023-01-26T06:07:13.683Z,12.57
2023-01-26T06:09:42.049Z,14.40
2023-01-26T06:12:16.579Z,13.43
2023-01-26T06:14:47.132Z,12.90
2023-01-26T06:17:19.047Z,14.10
2023-01-26T06:19:47.319Z,14.47
2023-01-26T06:22:16.147Z,14.17
2023-01-26T06:24:44.286Z,14.60
2023-01-26T06:27:15.139Z,14.30
2023-01-26T06:32:44.213Z,12.88
2023-01-26T06:35:12.498Z,14.40
2023-01-26T06:37:40.755Z,13.33
2023-01-26T06:40:10.547Z,13.70
2023-01-26T06:42:39.290Z,13.43
2023-01-26T06:45:08.772Z,11.23
2023-01-26T06:47:37.062Z,13.67
2023-01-26T06:50:17.195Z,12.93
2023-01-26T06:52:48.709Z,12.20
2023-01-26T06:55:31.885Z,13.40
2023-01-26T06:58:06.480Z,13.17
2023-01-26T07:00:35.391Z,13.47
2023-01-26T07:03:14.655Z,14.13
2023-01-26T07:05:47.504Z,15.00
2023-01-26T07:08:16.116Z,15.40
2023-01-26T07:10:45.033Z,15.03
2023-01-26T07:13:13.467Z,15.10
2023-01-26T07:16:03.247Z,14.90
2023-01-26T07:18:33.962Z,13.47
2023-01-26T07:21:09.778Z,13.83
2023-01-26T07:23:44.333Z,12.67
2023-01-26T07:26:55.501Z,13.33
2023-01-26T07:29:24.611Z,12.93
2023-01-26T07:31:54.874Z,13.30
2023-01-26T07:34:23.226Z,12.67
2023-01-26T07:36:54.750Z,13.70
2023-01-26T07:39:50.748Z,14.47
2023-01-26T07:42:27.651Z,13.85
2023-01-26T07:45:00.838Z,15.07
2023-01-26T07:47:41.635Z,15.30
2023-01-26T07:50:48.513Z,14.05
2023-01-26T07:53:38.527Z,13.97
2023-01-26T07:59:16.070Z,15.27
2023-01-26T08:01:58.094Z,14.87
2023-01-26T08:04:29.557Z,17.43
2023-01-26T08:06:58.090Z,13.00
2023-01-26T08:09:41.723Z,15.80
2023-01-26T08:12:28.121Z,16.83
2023-01-26T08:15:02.257Z,14.93
2023-01-26T08:17:43.376Z,15.27
2023-01-26T08:20:55.485Z,16.23
2023-01-26T08:24:08.889Z,16.27
2023-01-26T08:26:42.009Z,14.75
2023-01-26T08:29:43.135Z,16.13
2023-01-26T08:32:53.450Z,15.20
2023-01-26T08:35:26.536Z,14.97
2023-01-26T08:37:58.457Z,16.20
2023-01-26T08:40:45.668Z,15.67
2023-01-26T08:43:33.883Z,15.50
2023-01-26T08:50:15.253Z,14.40
2023-01-26T08:52:58.389Z,16.05
2023-01-26T08:55:28.425Z,14.60
2023-01-26T08:58:19.051Z,15.27
2023-01-26T09:01:02.833Z,16.35
2023-01-26T09:03:40.508Z,15.23
2023-01-26T09:06:21.140Z,16.13
2023-01-26T09:08:51.013Z,15.15
2023-01-26T09:11:19.284Z,14.33
2023-01-26T09:17:20.825Z,15.07
2023-01-26T09:19:49.139Z,16.20
2023-01-26T09:22:17.515Z,15.00
2023-01-26T09:24:45.810Z,15.10
2023-01-26T09:27:15.910Z,15.57
2023-01-26T09:29:45.684Z,14.37
2023-01-26T09:32:13.919Z,14.00
2023-01-26T09:34:44.195Z,15.33
2023-01-26T09:37:13.874Z,14.82
2023-01-26T09:39:42.103Z,13.80
2023-01-26T09:42:39.486Z,15.18
2023-01-26T09:45:25.801Z,15.98
2023-01-26T09:48:17.059Z,15.30
2023-01-26T09:50:52.240Z,13.93
2023-01-26T09:53:25.925Z,14.20
2023-01-26T09:55:55.358Z,16.67
2023-01-26T09:58:33.395Z,14.30
2023-01-26T10:01:05.145Z,15.70
2023-01-26T10:03:40.771Z,14.82
2023-01-26T10:06:19.434Z,15.60
2023-01-26T10:08:48.287Z,15.70
2023-01-26T10:11:21.559Z,13.60
2023-01-26T10:13:52.971Z,15.53
2023-01-26T10:16:25.839Z,16.23
2023-01-26T10:19:01.942Z,16.30
2023-01-26T10:21:34.531Z,16.10
2023-01-26T10:24:25.463Z,16.00
2023-01-26T10:27:08.142Z,15.68
2023-01-26T10:29:36.354Z,13.73
2023-01-26T10:32:06.666Z,13.57
2023-01-26T10:34:35.277Z,14.82
2023-01-26T10:37:39.859Z,14.87
2023-01-26T10:40:12.174Z,14.82
2023-01-26T10:43:00.962Z,16.08
2023-01-26T10:45:31.576Z,15.00
2023-01-26T10:48:19.090Z,15.90
2023-01-26T10:50:48.710Z,15.00
2023-01-26T10:53:19.193Z,14.60
2023-01-26T10:56:04.703Z,16.17
2023-01-26T10:58:50.616Z,16.48
2023-01-26T11:01:55.768Z,15.65
2023-01-26T11:04:41.414Z,14.98
2023-01-26T11:08:17.153Z,14.57
2023-01-26T11:11:16.414Z,14.27
2023-01-26T11:13:50.780Z,15.50
2023-01-26T11:16:59.094Z,16.13
2023-01-26T11:19:49.993Z,14.18
2023-01-26T11:22:20.978Z,14.52
2023-01-26T11:25:01.540Z,14.63
2023-01-26T11:27:51.445Z,14.40
2023-01-26T11:30:48.277Z,14.93
2023-01-26T11:33:29.391Z,12.57
2023-01-26T11:36:07.700Z,13.57
2023-01-26T11:38:57.245Z,11.38
2023-01-26T11:41:42.917Z,13.07
2023-01-26T11:44:37.737Z,13.18
2023-01-26T11:47:35.714Z,14.02
2023-01-26T11:50:30.309Z,14.57
2023-01-26T11:53:23.388Z,11.95
2023-01-26T11:56:22.871Z,12.30
2023-01-26T11:58:58.835Z,13.43
2023-01-26T12:01:40.043Z,13.40
2023-01-26T12:04:13.489Z,12.95
2023-01-26T12:06:45.681Z,14.65
2023-01-26T12:09:21.573Z,14.15
2023-01-26T12:11:59.902Z,13.40
2023-01-26T12:14:39.235Z,13.73
2023-01-26T12:17:30.568Z,14.55
2023-01-26T12:20:06.963Z,15.13
2023-01-26T12:22:38.384Z,15.50
2023-01-26T12:25:22.323Z,15.13
2023-01-26T12:27:57.530Z,14.52
2023-01-26T12:30:39.245Z,14.68
2023-01-26T12:33:12.388Z,13.07
2023-01-26T12:36:18.159Z,14.68
2023-01-26T12:39:07.792Z,14.05
2023-01-26T12:42:00.600Z,15.38
2023-01-26T12:44:39.623Z,14.55
2023-01-26T12:47:14.437Z,14.82
2023-01-26T12:49:51.866Z,13.95
2023-01-26T12:52:37.998Z,14.00
2023-01-26T12:55:44.924Z,16.05
2023-01-26T12:58:17.626Z,15.52
2023-01-26T13:01:20.434Z,15.88
2023-01-26T13:03:56.784Z,14.65
2023-01-26T13:06:28.105Z,15.43
2023-01-26T13:09:06.113Z,13.27
2023-01-26T13:11:46.812Z,14.25
2023-01-26T13:14:58.954Z,14.93
2023-01-26T13:17:50.004Z,14.82
2023-01-26T13:20:46.444Z,16.85
2023-01-26T13:23:43.575Z,16.48
2023-01-26T13:26:25.022Z,16.60
2023-01-26T13:28:54.471Z,17.47
2023-01-26T13:31:34.586Z,16.83
2023-01-26T13:34:07.720Z,16.98
2023-01-26T13:36:39.848Z,16.60
2023-01-26T13:39:18.007Z,16.63
2023-01-26T13:41:48.121Z,16.90
2023-01-26T13:44:21.904Z,18.33
2023-01-26T13:46:55.480Z,18.63
2023-01-26T13:49:42.468Z,16.27
2023-01-26T13:52:22.337Z,17.10
2023-01-26T13:54:57.823Z,17.98
2023-01-26T13:57:28.091Z,16.58
2023-01-26T14:00:00.359Z,17.70
2023-01-26T14:02:31.364Z,18.58
2023-01-26T14:05:00.412Z,18.27
2023-01-26T14:07:32.414Z,16.08
2023-01-26T14:10:06.142Z,17.95
2023-01-26T14:12:43.733Z,17.45
2023-01-26T14:15:26.884Z,17.45
2023-01-26T14:18:01.216Z,17.25
2023-01-26T14:20:32.111Z,17.20
2023-01-26T14:23:21.077Z,15.73
2023-01-26T14:25:59.641Z,16.92
2023-01-26T14:28:31.737Z,15.85
2023-01-26T14:31:08.133Z,15.57
2023-01-26T14:33:38.467Z,15.75
2023-01-26T14:36:09.752Z,15.02
2023-01-26T14:38:44.153Z,15.20
2023-01-26T14:41:18.704Z,15.93
2023-01-26T14:43:46.961Z,15.52
2023-01-26T14:46:22.986Z,16.00
2023-01-26T14:48:58.124Z,15.18
2023-01-26T14:51:28.475Z,14.30
2023-01-26T14:53:59.733Z,16.33
2023-01-26T14:56:38.847Z,17.42
2023-01-26T14:59:09.491Z,16.40
2023-01-26T15:01:37.896Z,14.07
2023-01-26T15:04:17.316Z,15.63
2023-01-26T15:06:47.842Z,15.38
2023-01-26T15:09:23.383Z,15.47
2023-01-26T15:12:16.281Z,14.45
2023-01-26T15:14:58.444Z,14.98
2023-01-26T15:17:48.052Z,14.27
2023-01-26T15:20:39.898Z,16.00
2023-01-26T15:23:25.559Z,16.07
2023-01-26T15:25:54.228Z,14.15
2023-01-26T15:28:34.396Z,15.20
2023-01-26T15:31:03.163Z,13.30
2023-01-26T15:33:55.952Z,13.68
2023-01-26T15:36:33.162Z,15.45
2023-01-26T15:39:04.014Z,15.02
2023-01-26T15:41:32.451Z,15.25
2023-01-26T15:44:02.008Z,12.15
2023-01-26T15:46:30.582Z,13.70
2023-01-26T15:48:58.973Z,13.73
2023-01-26T15:51:27.183Z,13.65
2023-01-26T15:53:55.459Z,12.73
2023-01-26T15:56:23.725Z,12.70
2023-01-26T15:58:51.980Z,13.88
2023-01-26T16:01:23.274Z,13.23
2023-01-26T16:03:52.051Z,13.90
2023-01-26T16:06:25.302Z,13.13
2023-01-26T16:08:59.802Z,12.43
2023-01-26T16:11:31.158Z,13.27
2023-01-26T16:14:03.872Z,13.00
2023-01-26T16:16:40.547Z,13.27
2023-01-26T16:19:11.554Z,13.35
2023-01-26T16:21:41.095Z,13.55
2023-01-26T16:24:12.438Z,12.00
2023-01-26T16:26:40.598Z,12.98
2023-01-26T16:29:08.805Z,13.17
2023-01-26T16:31:38.520Z,12.00
2023-01-26T16:34:06.692Z,11.43
2023-01-26T16:36:35.233Z,11.83
2023-01-26T16:39:03.390Z,11.55
2023-01-26T16:41:33.645Z,12.30
2023-01-26T16:44:03.481Z,12.35
2023-01-26T16:46:34.411Z,12.38
2023-01-26T16:49:14.153Z,12.30
2023-01-26T16:51:59.315Z,11.73
2023-01-26T16:54:27.957Z,12.07
2023-01-26T16:57:03.727Z,12.10
2023-01-26T16:59:51.926Z,10.93
2023-01-26T17:02:26.260Z,11.20
2023-01-26T17:04:56.045Z,12.73
2023-01-26T17:10:25.380Z,11.37
2023-01-26T17:14:01.421Z,10.87
2023-01-26T17:17:16.020Z,11.15
2023-01-26T17:37:49.992Z,10.82
2023-01-26T17:40:22.490Z,12.10
2023-01-26T17:42:51.090Z,11.77
2023-01-26T17:45:19.658Z,12.20
2023-01-26T17:47:47.912Z,11.70
2023-01-26T17:50:16.517Z,12.48
2023-01-26T17:52:46.697Z,12.17
2023-01-26T18:03:02.154Z,11.95
2023-01-26T18:06:53.862Z,12.97
2023-01-26T18:17:08.317Z,11.73
2023-01-26T18:20:12.685Z,10.27
2023-01-26T18:22:40.916Z,11.13
2023-01-26T18:25:26.488Z,11.80
2023-01-26T18:28:09.089Z,12.00
2023-01-26T18:30:37.325Z,11.90
2023-01-26T18:33:07.585Z,12.83
2023-01-26T18:35:36.200Z,13.33
2023-01-26T18:38:05.101Z,12.07
2023-01-26T18:40:33.269Z,12.48
2023-01-26T18:43:01.417Z,11.95
2023-01-26T18:45:29.647Z,13.95
2023-01-26T18:47:57.839Z,12.30
2023-01-26T18:50:27.768Z,11.53
2023-01-26T18:52:56.035Z,12.97
2023-01-26T18:55:24.197Z,11.85
2023-01-26T18:57:55.338Z,12.13
2023-01-26T19:00:23.966Z,12.98
2023-01-26T19:02:52.213Z,12.67
2023-01-26T19:05:20.364Z,12.37
2023-01-26T19:07:50.173Z,10.03
2023-01-26T19:10:18.503Z,10.37
2023-01-26T19:12:49.767Z,9.57
2023-01-26T19:15:17.983Z,11.10
2023-01-26T19:17:48.598Z,12.10
2023-01-26T19:20:17.222Z,9.87
2023-01-26T19:22:53.868Z,10.30
2023-01-26T19:25:23.953Z,8.52
2023-01-26T19:27:52.355Z,8.27
2023-01-26T19:30:20.843Z,9.37
2023-01-26T19:33:07.032Z,10.05
2023-01-26T19:35:38.283Z,8.33
2023-01-26T19:38:07.290Z,9.40
2023-01-26T19:40:37.412Z,9.40
2023-01-26T19:43:06.697Z,8.55
2023-01-26T19:45:34.905Z,8.23
2023-01-26T19:48:03.282Z,9.13
2023-01-26T19:50:31.750Z,8.43
2023-01-26T19:53:00.023Z,9.55
2023-01-26T19:55:28.186Z,9.30
2023-01-26T19:57:57.900Z,8.57
2023-01-26T20:00:26.467Z,7.80
2023-01-26T20:02:54.659Z,9.33
2023-01-26T20:05:22.914Z,8.70
2023-01-26T20:07:51.167Z,8.37
2023-01-26T20:10:19.524Z,9.07
2023-01-26T20:12:47.778Z,8.23
2023-01-26T20:15:17.499Z,8.05
2023-01-26T20:17:45.949Z,7.95
2023-01-26T20:20:14.352Z,8.25
2023-01-26T20:22:42.616Z,8.30
2023-01-26T20:25:12.467Z,7.53
2023-01-26T20:27:41.040Z,8.60
2023-01-26T20:30:10.714Z,8.93
2023-01-26T20:32:40.738Z,8.60
2023-01-26T20:35:10.003Z,9.35
2023-01-26T20:37:38.322Z,9.83
2023-01-26T20:40:07.989Z,8.10
2023-01-26T20:42:36.217Z,8.27
2023-01-26T20:45:04.453Z,8.97
2023-01-26T20:47:34.144Z,9.17
2023-01-26T20:50:03.782Z,8.43
2023-01-26T20:52:31.966Z,9.10
2023-01-26T20:55:02.119Z,8.83
2023-01-26T20:57:32.345Z,9.90
2023-01-26T21:00:00.533Z,8.90
2023-01-26T21:02:28.760Z,8.43
2023-01-26T21:04:57.013Z,9.55
2023-01-26T21:07:28.244Z,7.78
2023-01-26T21:09:56.512Z,9.27
2023-01-26T21:12:24.851Z,10.67
2023-01-26T21:14:53.288Z,8.63
2023-01-26T21:17:22.881Z,9.93
2023-01-26T21:19:51.237Z,10.63
2023-01-26T21:22:21.103Z,9.27
2023-01-26T21:24:50.648Z,9.63
2023-01-26T21:27:19.540Z,9.73
2023-01-26T21:29:47.770Z,9.48
2023-01-26T21:32:16.019Z,10.07
2023-01-26T21:34:44.469Z,9.47
2023-01-26T21:37:12.572Z,8.70
2023-01-26T21:39:40.730Z,9.93
2023-01-26T21:42:10.316Z,8.60
2023-01-26T21:44:58.661Z,10.17
2023-01-26T21:47:26.813Z,7.80
2023-01-26T21:49:56.212Z,9.10
2023-01-26T21:52:41.704Z,9.50
2023-01-26T21:55:10.490Z,9.60
2023-01-26T21:57:57.039Z,9.67
2023-01-26T22:00:25.195Z,8.23
2023-01-26T22:02:54.560Z,8.30
2023-01-26T22:05:23.039Z,9.57
2023-01-26T22:07:51.265Z,10.17
2023-01-26T22:10:19.602Z,8.15
2023-01-26T22:12:49.207Z,9.60
2023-01-26T22:15:17.493Z,9.87
2023-01-26T22:17:45.759Z,8.02
2023-01-26T22:20:14.412Z,8.57
2023-01-26T22:22:42.856Z,9.30
2023-01-26T22:25:11.401Z,8.70
2023-01-26T22:27:41.376Z,8.10
2023-01-26T22:30:12.632Z,8.70
2023-01-26T22:32:41.188Z,8.18
2023-01-26T22:35:10.601Z,8.05
2023-01-26T22:37:39.051Z,8.83
2023-01-26T22:40:08.528Z,7.43
2023-01-26T22:42:36.721Z,8.53
2023-01-26T22:45:05.340Z,8.98
2023-01-26T22:47:35.856Z,10.03
2023-01-26T22:50:04.108Z,8.93
2023-01-26T22:52:32.472Z,8.07
2023-01-26T22:55:00.942Z,7.45
2023-01-26T22:57:29.257Z,9.30
2023-01-26T22:59:57.448Z,8.80
2023-01-26T23:02:25.596Z,9.40
2023-01-26T23:04:55.507Z,8.63
2023-01-26T23:07:24.511Z,8.48
2023-01-26T23:09:52.976Z,9.57
2023-01-26T23:12:21.085Z,8.30
2023-01-26T23:14:49.301Z,7.97
2023-01-26T23:17:17.520Z,8.87
2023-01-26T23:19:46.056Z,9.10
2023-01-26T23:22:15.784Z,7.53
2023-01-26T23:25:03.978Z,9.48
2023-01-26T23:27:32.151Z,7.87
2023-01-26T23:30:03.114Z,7.47
2023-01-26T23:32:31.593Z,7.87
2023-01-26T23:35:00.133Z,8.37
2023-01-26T23:37:29.835Z,8.20
2023-01-26T23:39:59.372Z,7.97
2023-01-26T23:42:27.565Z,6.72
2023-01-26T23:44:55.703Z,7.40
2023-01-26T23:47:24.362Z,7.67
2023-01-26T23:49:52.680Z,6.63
2023-01-26T23:52:20.792Z,6.47
2023-01-26T23:54:50.463Z,7.27
2023-01-26T23:57:18.712Z,6.70
2023-01-26T23:59:46.839Z,6.27
